sensor_id;sensor_type;location;lat;lon;timestamp;P1;durP1;ratioP1;P2;durP2;ratioP2
65825;SDS011;52586;-43.152;172.732;2022-08-11T00:01:20;2.97;;;1.70;;
65825;SDS011;52586;-43.152;172.732;2022-08-11T00:03:53;3.45;;;2.03;;
65825;SDS011;52586;-43.152;172.732;2022-08-11T00:06:25;6.63;;;2.25;;
65825;SDS011;52586;-43.152;172.732;2022-08-11T00:09:00;3.67;;;2.22;;
65825;SDS011;52586;-43.152;172.732;2022-08-11T00:11:33;3.75;;;2.30;;
65825;SDS011;52586;-43.152;172.732;2022-08-11T00:14:12;4.47;;;2.45;;
65825;SDS011;52586;-43.152;172.732;2022-08-11T00:16:51;5.00;;;2.28;;
65825;SDS011;52586;-43.152;172.732;2022-08-11T00:19:24;4.38;;;2.60;;
65825;SDS011;52586;-43.152;172.732;2022-08-11T00:21:56;3.55;;;1.95;;
65825;SDS011;52586;-43.152;172.732;2022-08-11T00:24:31;4.20;;;2.50;;
65825;SDS011;52586;-43.152;172.732;2022-08-11T00:27:03;5.55;;;2.13;;
65825;SDS011;52586;-43.152;172.732;2022-08-11T00:29:34;5.13;;;2.40;;
65825;SDS011;52586;-43.152;172.732;2022-08-11T00:32:07;3.95;;;2.15;;
65825;SDS011;52586;-43.152;172.732;2022-08-11T00:34:43;2.90;;;1.95;;
65825;SDS011;52586;-43.152;172.732;2022-08-11T00:37:17;5.15;;;2.45;;
65825;SDS011;52586;-43.152;172.732;2022-08-11T00:39:50;6.72;;;2.50;;
65825;SDS011;52586;-43.152;172.732;2022-08-11T00:42:25;4.68;;;2.33;;
65825;SDS011;52586;-43.152;172.732;2022-08-11T00:45:09;4.40;;;2.20;;
65825;SDS011;52586;-43.152;172.732;2022-08-11T00:47:52;4.97;;;2.17;;
65825;SDS011;52586;-43.152;172.732;2022-08-11T00:50:35;4.15;;;1.85;;
65825;SDS011;52586;-43.152;172.732;2022-08-11T00:53:23;3.58;;;1.70;;
65825;SDS011;52586;-43.152;172.732;2022-08-11T00:59:18;3.80;;;1.70;;
65825;SDS011;52586;-43.152;172.732;2022-08-11T01:02:08;3.15;;;1.80;;
65825;SDS011;52586;-43.152;172.732;2022-08-11T01:07:59;3.78;;;1.98;;
65825;SDS011;52586;-43.152;172.732;2022-08-11T01:14:23;3.83;;;1.65;;
65825;SDS011;52586;-43.152;172.732;2022-08-11T01:20:16;3.13;;;2.13;;
65825;SDS011;52586;-43.152;172.732;2022-08-11T01:23:24;4.28;;;2.30;;
65825;SDS011;52586;-43.152;172.732;2022-08-11T01:36:01;3.63;;;1.90;;
65825;SDS011;52586;-43.152;172.732;2022-08-11T01:45:24;6.32;;;2.35;;
65825;SDS011;52586;-43.152;172.732;2022-08-11T01:48:02;3.55;;;2.50;;
65825;SDS011;52586;-43.152;172.732;2022-08-11T01:50:49;4.90;;;1.98;;
65825;SDS011;52586;-43.152;172.732;2022-08-11T01:53:42;6.47;;;2.28;;
65825;SDS011;52586;-43.152;172.732;2022-08-11T01:56:21;5.15;;;1.90;;
65825;SDS011;52586;-43.152;172.732;2022-08-11T01:59:07;4.18;;;2.05;;
65825;SDS011;52586;-43.152;172.732;2022-08-11T02:01:55;4.43;;;2.00;;
65825;SDS011;52586;-43.152;172.732;2022-08-11T02:04:46;4.00;;;1.80;;
65825;SDS011;52586;-43.152;172.732;2022-08-11T02:07:27;2.53;;;1.90;;
65825;SDS011;52586;-43.152;172.732;2022-08-11T02:10:09;4.22;;;1.92;;
65825;SDS011;52586;-43.152;172.732;2022-08-11T02:13:13;3.42;;;1.80;;
65825;SDS011;52586;-43.152;172.732;2022-08-11T02:15:50;3.25;;;1.70;;
65825;SDS011;52586;-43.152;172.732;2022-08-11T02:18:33;4.55;;;2.03;;
65825;SDS011;52586;-43.152;172.732;2022-08-11T02:21:26;4.38;;;2.08;;
65825;SDS011;52586;-43.152;172.732;2022-08-11T02:24:27;2.45;;;2.05;;
65825;SDS011;52586;-43.152;172.732;2022-08-11T02:27:05;3.63;;;2.28;;
65825;SDS011;52586;-43.152;172.732;2022-08-11T02:29:46;3.95;;;2.53;;
65825;SDS011;52586;-43.152;172.732;2022-08-11T02:32:34;4.43;;;2.70;;
65825;SDS011;52586;-43.152;172.732;2022-08-11T02:35:42;4.90;;;2.67;;
65825;SDS011;52586;-43.152;172.732;2022-08-11T02:38:23;4.40;;;2.40;;
65825;SDS011;52586;-43.152;172.732;2022-08-11T02:41:02;3.75;;;2.45;;
65825;SDS011;52586;-43.152;172.732;2022-08-11T02:43:51;4.47;;;2.47;;
65825;SDS011;52586;-43.152;172.732;2022-08-11T02:46:39;5.85;;;2.90;;
65825;SDS011;52586;-43.152;172.732;2022-08-11T02:49:23;3.80;;;2.30;;
65825;SDS011;52586;-43.152;172.732;2022-08-11T02:52:27;4.90;;;2.55;;
65825;SDS011;52586;-43.152;172.732;2022-08-11T02:55:12;4.55;;;2.45;;
65825;SDS011;52586;-43.152;172.732;2022-08-11T02:57:54;4.28;;;2.70;;
65825;SDS011;52586;-43.152;172.732;2022-08-11T03:00:30;3.78;;;2.60;;
65825;SDS011;52586;-43.152;172.732;2022-08-11T03:03:17;5.10;;;2.70;;
65825;SDS011;52586;-43.152;172.732;2022-08-11T03:06:01;4.45;;;2.83;;
65825;SDS011;52586;-43.152;172.732;2022-08-11T03:11:41;5.13;;;2.50;;
65825;SDS011;52586;-43.152;172.732;2022-08-11T03:14:47;3.78;;;2.28;;
65825;SDS011;52586;-43.152;172.732;2022-08-11T03:17:40;3.85;;;2.30;;
65825;SDS011;52586;-43.152;172.732;2022-08-11T03:20:25;3.58;;;2.20;;
65825;SDS011;52586;-43.152;172.732;2022-08-11T03:23:03;5.20;;;2.20;;
65825;SDS011;52586;-43.152;172.732;2022-08-11T03:25:44;3.35;;;2.00;;
65825;SDS011;52586;-43.152;172.732;2022-08-11T03:28:26;3.88;;;2.15;;
65825;SDS011;52586;-43.152;172.732;2022-08-11T03:31:14;4.00;;;1.70;;
65825;SDS011;52586;-43.152;172.732;2022-08-11T03:33:52;3.58;;;1.95;;
65825;SDS011;52586;-43.152;172.732;2022-08-11T03:39:27;3.45;;;1.83;;
65825;SDS011;52586;-43.152;172.732;2022-08-11T03:42:11;3.33;;;1.92;;
65825;SDS011;52586;-43.152;172.732;2022-08-11T03:44:54;2.67;;;1.70;;
65825;SDS011;52586;-43.152;172.732;2022-08-11T03:47:36;3.90;;;2.00;;
65825;SDS011;52586;-43.152;172.732;2022-08-11T03:50:21;3.15;;;1.98;;
65825;SDS011;52586;-43.152;172.732;2022-08-11T03:53:16;3.20;;;1.88;;
65825;SDS011;52586;-43.152;172.732;2022-08-11T04:09:02;3.72;;;2.08;;
65825;SDS011;52586;-43.152;172.732;2022-08-11T04:24:48;3.45;;;2.10;;
65825;SDS011;52586;-43.152;172.732;2022-08-11T04:27:51;3.20;;;1.95;;
65825;SDS011;52586;-43.152;172.732;2022-08-11T04:30:41;3.75;;;2.00;;
65825;SDS011;52586;-43.152;172.732;2022-08-11T04:46:08;2.20;;;1.70;;
65825;SDS011;52586;-43.152;172.732;2022-08-11T04:49:05;2.83;;;1.70;;
65825;SDS011;52586;-43.152;172.732;2022-08-11T04:55:34;3.00;;;1.73;;
65825;SDS011;52586;-43.152;172.732;2022-08-11T04:58:58;2.28;;;1.67;;
65825;SDS011;52586;-43.152;172.732;2022-08-11T05:02:12;3.15;;;1.80;;
65825;SDS011;52586;-43.152;172.732;2022-08-11T05:05:19;5.28;;;2.10;;
65825;SDS011;52586;-43.152;172.732;2022-08-11T05:08:11;2.70;;;1.55;;
65825;SDS011;52586;-43.152;172.732;2022-08-11T05:11:09;3.58;;;1.88;;
65825;SDS011;52586;-43.152;172.732;2022-08-11T05:14:01;4.45;;;1.85;;
65825;SDS011;52586;-43.152;172.732;2022-08-11T05:17:15;3.58;;;2.22;;
65825;SDS011;52586;-43.152;172.732;2022-08-11T05:20:11;3.55;;;1.80;;
65825;SDS011;52586;-43.152;172.732;2022-08-11T05:23:00;3.70;;;1.90;;
65825;SDS011;52586;-43.152;172.732;2022-08-11T05:25:54;4.18;;;2.00;;
65825;SDS011;52586;-43.152;172.732;2022-08-11T05:28:45;4.10;;;1.90;;
65825;SDS011;52586;-43.152;172.732;2022-08-11T05:31:37;2.78;;;1.90;;
65825;SDS011;52586;-43.152;172.732;2022-08-11T05:34:27;3.30;;;2.15;;
65825;SDS011;52586;-43.152;172.732;2022-08-11T05:37:18;2.33;;;1.95;;
65825;SDS011;52586;-43.152;172.732;2022-08-11T05:39:54;3.08;;;2.10;;
65825;SDS011;52586;-43.152;172.732;2022-08-11T05:42:47;2.90;;;2.00;;
65825;SDS011;52586;-43.152;172.732;2022-08-11T05:45:38;2.10;;;1.73;;
65825;SDS011;52586;-43.152;172.732;2022-08-11T05:48:29;2.30;;;2.10;;
65825;SDS011;52586;-43.152;172.732;2022-08-11T05:51:18;2.72;;;2.10;;
65825;SDS011;52586;-43.152;172.732;2022-08-11T05:54:06;2.97;;;2.08;;
65825;SDS011;52586;-43.152;172.732;2022-08-11T05:56:55;2.95;;;1.98;;
65825;SDS011;52586;-43.152;172.732;2022-08-11T05:59:29;3.78;;;2.55;;
65825;SDS011;52586;-43.152;172.732;2022-08-11T06:02:02;2.78;;;2.25;;
65825;SDS011;52586;-43.152;172.732;2022-08-11T06:04:35;3.90;;;2.05;;
65825;SDS011;52586;-43.152;172.732;2022-08-11T06:07:07;2.35;;;2.13;;
65825;SDS011;52586;-43.152;172.732;2022-08-11T06:09:46;4.00;;;2.30;;
65825;SDS011;52586;-43.152;172.732;2022-08-11T06:12:19;3.38;;;2.33;;
65825;SDS011;52586;-43.152;172.732;2022-08-11T06:14:55;3.60;;;2.13;;
65825;SDS011;52586;-43.152;172.732;2022-08-11T06:17:31;2.67;;;2.22;;
65825;SDS011;52586;-43.152;172.732;2022-08-11T06:20:04;3.90;;;2.22;;
65825;SDS011;52586;-43.152;172.732;2022-08-11T06:22:36;3.58;;;2.38;;
65825;SDS011;52586;-43.152;172.732;2022-08-11T06:25:09;2.63;;;1.90;;
65825;SDS011;52586;-43.152;172.732;2022-08-11T06:27:42;2.63;;;2.30;;
65825;SDS011;52586;-43.152;172.732;2022-08-11T06:30:15;5.10;;;2.47;;
65825;SDS011;52586;-43.152;172.732;2022-08-11T06:32:50;3.30;;;2.22;;
65825;SDS011;52586;-43.152;172.732;2022-08-11T06:35:24;3.85;;;2.30;;
65825;SDS011;52586;-43.152;172.732;2022-08-11T06:38:05;3.58;;;2.17;;
65825;SDS011;52586;-43.152;172.732;2022-08-11T06:40:41;2.20;;;2.00;;
65825;SDS011;52586;-43.152;172.732;2022-08-11T06:43:42;3.08;;;2.45;;
65825;SDS011;52586;-43.152;172.732;2022-08-11T06:46:24;2.13;;;1.90;;
65825;SDS011;52586;-43.152;172.732;2022-08-11T06:48:59;2.67;;;2.20;;
65825;SDS011;52586;-43.152;172.732;2022-08-11T06:51:32;2.17;;;1.98;;
65825;SDS011;52586;-43.152;172.732;2022-08-11T06:54:09;2.28;;;2.08;;
65825;SDS011;52586;-43.152;172.732;2022-08-11T06:56:44;3.30;;;2.13;;
65825;SDS011;52586;-43.152;172.732;2022-08-11T06:59:31;3.60;;;2.20;;
65825;SDS011;52586;-43.152;172.732;2022-08-11T07:02:23;2.60;;;2.20;;
65825;SDS011;52586;-43.152;172.732;2022-08-11T07:04:58;3.03;;;2.13;;
65825;SDS011;52586;-43.152;172.732;2022-08-11T07:07:52;2.42;;;2.03;;
65825;SDS011;52586;-43.152;172.732;2022-08-11T07:11:18;3.08;;;1.73;;
65825;SDS011;52586;-43.152;172.732;2022-08-11T07:14:22;2.13;;;1.98;;
65825;SDS011;52586;-43.152;172.732;2022-08-11T07:17:13;2.58;;;1.90;;
65825;SDS011;52586;-43.152;172.732;2022-08-11T07:19:49;1.73;;;1.63;;
65825;SDS011;52586;-43.152;172.732;2022-08-11T07:22:39;2.70;;;2.30;;
65825;SDS011;52586;-43.152;172.732;2022-08-11T07:25:28;3.00;;;2.10;;
65825;SDS011;52586;-43.152;172.732;2022-08-11T07:28:17;2.30;;;1.90;;
65825;SDS011;52586;-43.152;172.732;2022-08-11T07:31:11;3.13;;;1.88;;
65825;SDS011;52586;-43.152;172.732;2022-08-11T07:33:46;2.45;;;1.80;;
65825;SDS011;52586;-43.152;172.732;2022-08-11T07:36:22;3.08;;;2.30;;
65825;SDS011;52586;-43.152;172.732;2022-08-11T07:38:56;2.65;;;2.17;;
65825;SDS011;52586;-43.152;172.732;2022-08-11T07:41:28;2.05;;;1.85;;
65825;SDS011;52586;-43.152;172.732;2022-08-11T07:44:04;2.10;;;1.90;;
65825;SDS011;52586;-43.152;172.732;2022-08-11T07:46:38;2.50;;;1.80;;
65825;SDS011;52586;-43.152;172.732;2022-08-11T07:49:27;2.65;;;2.00;;
65825;SDS011;52586;-43.152;172.732;2022-08-11T07:52:19;2.30;;;2.10;;
65825;SDS011;52586;-43.152;172.732;2022-08-11T07:55:00;2.78;;;2.10;;
65825;SDS011;52586;-43.152;172.732;2022-08-11T07:57:32;2.60;;;1.92;;
65825;SDS011;52586;-43.152;172.732;2022-08-11T08:00:20;2.00;;;1.52;;
65825;SDS011;52586;-43.152;172.732;2022-08-11T08:03:07;2.95;;;2.13;;
65825;SDS011;52586;-43.152;172.732;2022-08-11T08:05:54;2.45;;;2.05;;
65825;SDS011;52586;-43.152;172.732;2022-08-11T08:08:43;2.78;;;1.80;;
65825;SDS011;52586;-43.152;172.732;2022-08-11T08:11:30;2.22;;;1.90;;
65825;SDS011;52586;-43.152;172.732;2022-08-11T08:14:17;2.70;;;2.20;;
65825;SDS011;52586;-43.152;172.732;2022-08-11T08:17:04;3.22;;;1.98;;
65825;SDS011;52586;-43.152;172.732;2022-08-11T08:19:50;1.90;;;1.60;;
65825;SDS011;52586;-43.152;172.732;2022-08-11T08:22:22;2.00;;;1.70;;
65825;SDS011;52586;-43.152;172.732;2022-08-11T08:24:55;2.60;;;2.17;;
65825;SDS011;52586;-43.152;172.732;2022-08-11T08:27:26;2.20;;;2.00;;
65825;SDS011;52586;-43.152;172.732;2022-08-11T08:29:57;2.05;;;1.88;;
65825;SDS011;52586;-43.152;172.732;2022-08-11T08:32:45;2.42;;;1.77;;
65825;SDS011;52586;-43.152;172.732;2022-08-11T08:35:16;2.50;;;1.90;;
65825;SDS011;52586;-43.152;172.732;2022-08-11T08:37:49;3.38;;;1.90;;
65825;SDS011;52586;-43.152;172.732;2022-08-11T08:40:21;2.17;;;1.80;;
65825;SDS011;52586;-43.152;172.732;2022-08-11T08:42:56;2.50;;;1.83;;
65825;SDS011;52586;-43.152;172.732;2022-08-11T08:45:33;2.20;;;2.00;;
65825;SDS011;52586;-43.152;172.732;2022-08-11T08:48:05;4.20;;;2.03;;
65825;SDS011;52586;-43.152;172.732;2022-08-11T08:50:42;2.25;;;1.63;;
65825;SDS011;52586;-43.152;172.732;2022-08-11T08:53:33;1.80;;;1.70;;
65825;SDS011;52586;-43.152;172.732;2022-08-11T08:56:08;2.22;;;1.63;;
65825;SDS011;52586;-43.152;172.732;2022-08-11T08:58:39;1.80;;;1.70;;
65825;SDS011;52586;-43.152;172.732;2022-08-11T09:01:14;2.00;;;1.83;;
65825;SDS011;52586;-43.152;172.732;2022-08-11T09:03:47;2.05;;;1.85;;
65825;SDS011;52586;-43.152;172.732;2022-08-11T09:06:19;3.30;;;1.80;;
65825;SDS011;52586;-43.152;172.732;2022-08-11T09:08:50;2.63;;;1.92;;
65825;SDS011;52586;-43.152;172.732;2022-08-11T09:11:23;2.75;;;2.08;;
65825;SDS011;52586;-43.152;172.732;2022-08-11T09:14:10;2.53;;;1.85;;
65825;SDS011;52586;-43.152;172.732;2022-08-11T09:16:41;2.47;;;2.00;;
65825;SDS011;52586;-43.152;172.732;2022-08-11T09:19:13;2.22;;;1.95;;
65825;SDS011;52586;-43.152;172.732;2022-08-11T09:21:47;1.85;;;1.75;;
65825;SDS011;52586;-43.152;172.732;2022-08-11T09:24:30;2.85;;;1.80;;
65825;SDS011;52586;-43.152;172.732;2022-08-11T09:27:20;2.78;;;2.17;;
65825;SDS011;52586;-43.152;172.732;2022-08-11T09:29:52;2.55;;;2.30;;
65825;SDS011;52586;-43.152;172.732;2022-08-11T09:32:24;2.47;;;2.00;;
65825;SDS011;52586;-43.152;172.732;2022-08-11T09:34:56;2.20;;;1.75;;
65825;SDS011;52586;-43.152;172.732;2022-08-11T09:37:29;2.72;;;2.30;;
65825;SDS011;52586;-43.152;172.732;2022-08-11T09:40:17;2.80;;;2.00;;
65825;SDS011;52586;-43.152;172.732;2022-08-11T09:42:59;2.83;;;1.85;;
65825;SDS011;52586;-43.152;172.732;2022-08-11T09:45:49;2.42;;;2.22;;
65825;SDS011;52586;-43.152;172.732;2022-08-11T09:48:21;2.38;;;2.17;;
65825;SDS011;52586;-43.152;172.732;2022-08-11T09:50:53;2.58;;;2.33;;
65825;SDS011;52586;-43.152;172.732;2022-08-11T09:53:27;2.55;;;2.20;;
65825;SDS011;52586;-43.152;172.732;2022-08-11T09:56:01;2.65;;;2.10;;
65825;SDS011;52586;-43.152;172.732;2022-08-11T09:58:54;2.70;;;2.13;;
65825;SDS011;52586;-43.152;172.732;2022-08-11T10:01:25;3.30;;;2.50;;
65825;SDS011;52586;-43.152;172.732;2022-08-11T10:03:59;2.97;;;2.20;;
65825;SDS011;52586;-43.152;172.732;2022-08-11T10:06:33;2.90;;;2.60;;
65825;SDS011;52586;-43.152;172.732;2022-08-11T10:09:25;3.08;;;2.60;;
65825;SDS011;52586;-43.152;172.732;2022-08-11T10:12:02;2.38;;;2.17;;
65825;SDS011;52586;-43.152;172.732;2022-08-11T10:14:40;2.85;;;2.47;;
65825;SDS011;52586;-43.152;172.732;2022-08-11T10:17:30;2.92;;;2.38;;
65825;SDS011;52586;-43.152;172.732;2022-08-11T10:20:03;2.67;;;2.47;;
65825;SDS011;52586;-43.152;172.732;2022-08-11T10:22:36;3.03;;;2.38;;
65825;SDS011;52586;-43.152;172.732;2022-08-11T10:25:23;2.58;;;2.38;;
65825;SDS011;52586;-43.152;172.732;2022-08-11T10:28:10;3.08;;;2.38;;
65825;SDS011;52586;-43.152;172.732;2022-08-11T10:30:44;3.22;;;2.60;;
65825;SDS011;52586;-43.152;172.732;2022-08-11T10:33:28;5.65;;;2.63;;
65825;SDS011;52586;-43.152;172.732;2022-08-11T10:36:17;3.28;;;2.30;;
65825;SDS011;52586;-43.152;172.732;2022-08-11T10:38:49;3.67;;;2.65;;
65825;SDS011;52586;-43.152;172.732;2022-08-11T10:41:20;3.75;;;2.45;;
65825;SDS011;52586;-43.152;172.732;2022-08-11T10:44:08;3.40;;;2.45;;
65825;SDS011;52586;-43.152;172.732;2022-08-11T10:46:42;3.58;;;2.40;;
65825;SDS011;52586;-43.152;172.732;2022-08-11T10:49:30;3.92;;;2.70;;
65825;SDS011;52586;-43.152;172.732;2022-08-11T10:52:01;3.15;;;2.30;;
65825;SDS011;52586;-43.152;172.732;2022-08-11T10:54:48;3.00;;;2.60;;
65825;SDS011;52586;-43.152;172.732;2022-08-11T10:57:36;3.15;;;2.55;;
65825;SDS011;52586;-43.152;172.732;2022-08-11T11:00:23;3.22;;;2.42;;
65825;SDS011;52586;-43.152;172.732;2022-08-11T11:02:57;3.17;;;2.30;;
65825;SDS011;52586;-43.152;172.732;2022-08-11T11:05:29;3.30;;;2.35;;
65825;SDS011;52586;-43.152;172.732;2022-08-11T11:08:09;2.85;;;2.20;;
65825;SDS011;52586;-43.152;172.732;2022-08-11T11:10:54;3.20;;;2.53;;
65825;SDS011;52586;-43.152;172.732;2022-08-11T11:13:25;3.38;;;2.33;;
65825;SDS011;52586;-43.152;172.732;2022-08-11T11:16:12;4.07;;;2.60;;
65825;SDS011;52586;-43.152;172.732;2022-08-11T11:19:06;3.15;;;2.40;;
65825;SDS011;52586;-43.152;172.732;2022-08-11T11:21:48;3.78;;;2.60;;
65825;SDS011;52586;-43.152;172.732;2022-08-11T11:24:44;4.60;;;2.40;;
65825;SDS011;52586;-43.152;172.732;2022-08-11T11:27:29;2.80;;;2.40;;
65825;SDS011;52586;-43.152;172.732;2022-08-11T11:30:05;3.47;;;2.45;;
65825;SDS011;52586;-43.152;172.732;2022-08-11T11:32:40;3.08;;;2.25;;
65825;SDS011;52586;-43.152;172.732;2022-08-11T11:35:33;3.35;;;2.35;;
65825;SDS011;52586;-43.152;172.732;2022-08-11T11:38:09;2.90;;;2.47;;
65825;SDS011;52586;-43.152;172.732;2022-08-11T11:40:40;3.83;;;2.58;;
65825;SDS011;52586;-43.152;172.732;2022-08-11T11:43:31;3.05;;;2.47;;
65825;SDS011;52586;-43.152;172.732;2022-08-11T11:46:04;3.10;;;2.10;;
65825;SDS011;52586;-43.152;172.732;2022-08-11T11:48:36;2.97;;;2.22;;
65825;SDS011;52586;-43.152;172.732;2022-08-11T11:51:13;2.85;;;2.50;;
65825;SDS011;52586;-43.152;172.732;2022-08-11T11:53:44;3.10;;;2.40;;
65825;SDS011;52586;-43.152;172.732;2022-08-11T11:56:16;2.65;;;2.33;;
65825;SDS011;52586;-43.152;172.732;2022-08-11T11:58:49;3.53;;;2.40;;
65825;SDS011;52586;-43.152;172.732;2022-08-11T12:01:41;3.30;;;2.40;;
65825;SDS011;52586;-43.152;172.732;2022-08-11T12:04:13;3.75;;;2.50;;
65825;SDS011;52586;-43.152;172.732;2022-08-11T12:06:47;2.53;;;1.92;;
65825;SDS011;52586;-43.152;172.732;2022-08-11T12:09:38;3.38;;;2.20;;
65825;SDS011;52586;-43.152;172.732;2022-08-11T12:12:10;3.50;;;2.10;;
65825;SDS011;52586;-43.152;172.732;2022-08-11T12:14:56;2.67;;;2.30;;
65825;SDS011;52586;-43.152;172.732;2022-08-11T12:17:28;3.22;;;2.30;;
65825;SDS011;52586;-43.152;172.732;2022-08-11T12:19:59;3.38;;;2.45;;
65825;SDS011;52586;-43.152;172.732;2022-08-11T12:22:32;3.30;;;2.33;;
65825;SDS011;52586;-43.152;172.732;2022-08-11T12:25:20;3.00;;;2.20;;
65825;SDS011;52586;-43.152;172.732;2022-08-11T12:28:07;3.05;;;2.20;;
65825;SDS011;52586;-43.152;172.732;2022-08-11T12:30:41;3.05;;;2.20;;
65825;SDS011;52586;-43.152;172.732;2022-08-11T12:33:13;3.58;;;2.63;;
65825;SDS011;52586;-43.152;172.732;2022-08-11T12:35:44;4.45;;;2.40;;
65825;SDS011;52586;-43.152;172.732;2022-08-11T12:38:20;3.00;;;2.20;;
65825;SDS011;52586;-43.152;172.732;2022-08-11T12:40:52;2.42;;;1.95;;
65825;SDS011;52586;-43.152;172.732;2022-08-11T12:43:39;2.13;;;1.80;;
65825;SDS011;52586;-43.152;172.732;2022-08-11T12:46:30;2.60;;;2.10;;
65825;SDS011;52586;-43.152;172.732;2022-08-11T12:49:04;3.05;;;2.20;;
65825;SDS011;52586;-43.152;172.732;2022-08-11T12:51:56;3.65;;;2.30;;
65825;SDS011;52586;-43.152;172.732;2022-08-11T12:54:32;2.67;;;2.05;;
65825;SDS011;52586;-43.152;172.732;2022-08-11T12:57:11;2.85;;;2.35;;
65825;SDS011;52586;-43.152;172.732;2022-08-11T12:59:59;3.38;;;2.28;;
65825;SDS011;52586;-43.152;172.732;2022-08-11T13:02:47;2.85;;;2.15;;
65825;SDS011;52586;-43.152;172.732;2022-08-11T13:05:34;3.05;;;2.30;;
65825;SDS011;52586;-43.152;172.732;2022-08-11T13:08:05;3.83;;;2.25;;
65825;SDS011;52586;-43.152;172.732;2022-08-11T13:10:39;3.53;;;1.98;;
65825;SDS011;52586;-43.152;172.732;2022-08-11T13:13:26;3.30;;;2.30;;
65825;SDS011;52586;-43.152;172.732;2022-08-11T13:15:57;3.08;;;2.15;;
65825;SDS011;52586;-43.152;172.732;2022-08-11T13:18:29;3.38;;;2.00;;
65825;SDS011;52586;-43.152;172.732;2022-08-11T13:21:01;3.97;;;2.22;;
65825;SDS011;52586;-43.152;172.732;2022-08-11T13:23:32;2.42;;;1.90;;
65825;SDS011;52586;-43.152;172.732;2022-08-11T13:26:07;3.53;;;2.00;;
65825;SDS011;52586;-43.152;172.732;2022-08-11T13:28:39;3.42;;;2.10;;
65825;SDS011;52586;-43.152;172.732;2022-08-11T13:31:10;2.95;;;2.00;;
65825;SDS011;52586;-43.152;172.732;2022-08-11T13:33:41;2.55;;;1.90;;
65825;SDS011;52586;-43.152;172.732;2022-08-11T13:36:16;3.30;;;1.90;;
65825;SDS011;52586;-43.152;172.732;2022-08-11T13:38:52;3.85;;;2.17;;
65825;SDS011;52586;-43.152;172.732;2022-08-11T13:41:26;3.92;;;2.20;;
65825;SDS011;52586;-43.152;172.732;2022-08-11T13:44:09;2.78;;;2.28;;
65825;SDS011;52586;-43.152;172.732;2022-08-11T13:46:42;2.50;;;2.00;;
65825;SDS011;52586;-43.152;172.732;2022-08-11T13:51:43;2.75;;;2.17;;
65825;SDS011;52586;-43.152;172.732;2022-08-11T13:54:15;4.35;;;2.10;;
65825;SDS011;52586;-43.152;172.732;2022-08-11T13:56:51;2.38;;;2.03;;
65825;SDS011;52586;-43.152;172.732;2022-08-11T13:59:23;2.40;;;2.08;;
65825;SDS011;52586;-43.152;172.732;2022-08-11T14:01:55;3.22;;;2.00;;
65825;SDS011;52586;-43.152;172.732;2022-08-11T14:04:29;2.70;;;1.80;;
65825;SDS011;52586;-43.152;172.732;2022-08-11T14:07:06;2.10;;;1.90;;
65825;SDS011;52586;-43.152;172.732;2022-08-11T14:09:40;4.18;;;2.15;;
65825;SDS011;52586;-43.152;172.732;2022-08-11T14:12:16;2.00;;;1.80;;
65825;SDS011;52586;-43.152;172.732;2022-08-11T14:15:06;2.90;;;1.80;;
65825;SDS011;52586;-43.152;172.732;2022-08-11T14:17:45;3.15;;;2.03;;
65825;SDS011;52586;-43.152;172.732;2022-08-11T14:20:19;2.03;;;1.65;;
65825;SDS011;52586;-43.152;172.732;2022-08-11T14:23:11;2.97;;;1.73;;
65825;SDS011;52586;-43.152;172.732;2022-08-11T14:25:43;2.10;;;1.75;;
65825;SDS011;52586;-43.152;172.732;2022-08-11T14:28:28;2.28;;;1.88;;
65825;SDS011;52586;-43.152;172.732;2022-08-11T14:31:01;4.05;;;2.15;;
65825;SDS011;52586;-43.152;172.732;2022-08-11T14:33:32;2.75;;;1.83;;
65825;SDS011;52586;-43.152;172.732;2022-08-11T14:36:05;4.18;;;1.92;;
65825;SDS011;52586;-43.152;172.732;2022-08-11T14:38:38;2.38;;;1.67;;
65825;SDS011;52586;-43.152;172.732;2022-08-11T14:41:10;2.88;;;2.00;;
65825;SDS011;52586;-43.152;172.732;2022-08-11T14:43:58;3.70;;;1.88;;
65825;SDS011;52586;-43.152;172.732;2022-08-11T14:46:45;3.33;;;1.85;;
65825;SDS011;52586;-43.152;172.732;2022-08-11T14:52:08;3.65;;;1.80;;
65825;SDS011;52586;-43.152;172.732;2022-08-11T14:54:41;2.97;;;1.70;;
65825;SDS011;52586;-43.152;172.732;2022-08-11T14:57:30;2.28;;;1.77;;
65825;SDS011;52586;-43.152;172.732;2022-08-11T15:00:06;1.92;;;1.58;;
65825;SDS011;52586;-43.152;172.732;2022-08-11T15:02:40;2.58;;;2.03;;
65825;SDS011;52586;-43.152;172.732;2022-08-11T15:05:28;2.38;;;1.70;;
65825;SDS011;52586;-43.152;172.732;2022-08-11T15:08:00;2.33;;;1.88;;
65825;SDS011;52586;-43.152;172.732;2022-08-11T15:10:31;2.47;;;1.90;;
65825;SDS011;52586;-43.152;172.732;2022-08-11T15:13:02;3.25;;;2.03;;
65825;SDS011;52586;-43.152;172.732;2022-08-11T15:15:35;2.55;;;2.00;;
65825;SDS011;52586;-43.152;172.732;2022-08-11T15:18:25;1.83;;;1.65;;
65825;SDS011;52586;-43.152;172.732;2022-08-11T15:20:57;2.30;;;1.70;;
65825;SDS011;52586;-43.152;172.732;2022-08-11T15:23:43;2.35;;;1.60;;
65825;SDS011;52586;-43.152;172.732;2022-08-11T15:26:31;3.47;;;1.70;;
65825;SDS011;52586;-43.152;172.732;2022-08-11T15:29:22;3.17;;;1.67;;
65825;SDS011;52586;-43.152;172.732;2022-08-11T15:32:14;1.70;;;1.55;;
65825;SDS011;52586;-43.152;172.732;2022-08-11T15:35:03;2.03;;;1.60;;
65825;SDS011;52586;-43.152;172.732;2022-08-11T15:37:51;2.10;;;1.60;;
65825;SDS011;52586;-43.152;172.732;2022-08-11T15:40:27;2.35;;;1.60;;
65825;SDS011;52586;-43.152;172.732;2022-08-11T15:43:15;2.85;;;1.63;;
65825;SDS011;52586;-43.152;172.732;2022-08-11T15:46:07;2.20;;;1.70;;
65825;SDS011;52586;-43.152;172.732;2022-08-11T15:48:44;2.38;;;1.40;;
65825;SDS011;52586;-43.152;172.732;2022-08-11T15:51:17;2.08;;;1.65;;
65825;SDS011;52586;-43.152;172.732;2022-08-11T15:53:56;3.08;;;1.73;;
65825;SDS011;52586;-43.152;172.732;2022-08-11T15:56:31;2.55;;;1.70;;
65825;SDS011;52586;-43.152;172.732;2022-08-11T15:59:06;1.85;;;1.50;;
65825;SDS011;52586;-43.152;172.732;2022-08-11T16:01:55;2.00;;;1.55;;
65825;SDS011;52586;-43.152;172.732;2022-08-11T16:04:46;1.70;;;1.55;;
65825;SDS011;52586;-43.152;172.732;2022-08-11T16:07:18;1.85;;;1.52;;
65825;SDS011;52586;-43.152;172.732;2022-08-11T16:09:53;4.07;;;1.70;;
65825;SDS011;52586;-43.152;172.732;2022-08-11T16:12:27;2.15;;;1.52;;
65825;SDS011;52586;-43.152;172.732;2022-08-11T16:15:01;2.45;;;1.60;;
65825;SDS011;52586;-43.152;172.732;2022-08-11T16:17:49;2.10;;;1.45;;
65825;SDS011;52586;-43.152;172.732;2022-08-11T16:20:24;2.20;;;1.63;;
65825;SDS011;52586;-43.152;172.732;2022-08-11T16:22:58;1.30;;;1.20;;
65825;SDS011;52586;-43.152;172.732;2022-08-11T16:25:32;1.50;;;1.33;;
65825;SDS011;52586;-43.152;172.732;2022-08-11T16:28:03;1.33;;;1.23;;
65825;SDS011;52586;-43.152;172.732;2022-08-11T16:30:38;2.13;;;1.40;;
65825;SDS011;52586;-43.152;172.732;2022-08-11T16:33:11;2.35;;;1.50;;
65825;SDS011;52586;-43.152;172.732;2022-08-11T16:35:45;2.70;;;1.50;;
65825;SDS011;52586;-43.152;172.732;2022-08-11T16:38:34;2.28;;;1.83;;
65825;SDS011;52586;-43.152;172.732;2022-08-11T16:41:07;2.38;;;1.50;;
65825;SDS011;52586;-43.152;172.732;2022-08-11T16:43:39;3.20;;;1.75;;
65825;SDS011;52586;-43.152;172.732;2022-08-11T16:46:28;2.65;;;1.40;;
65825;SDS011;52586;-43.152;172.732;2022-08-11T16:49:32;1.40;;;1.30;;
65825;SDS011;52586;-43.152;172.732;2022-08-11T16:52:08;2.10;;;1.55;;